Time,TemperatureF,DewpointF,PressureIn,WindDirection,WindDirectionDegrees,WindSpeedMPH,WindSpeedGustMPH,Humidity,HourlyPrecipIn,Conditions,Clouds,dailyrainin,SoftwareType,DateUTC
2013-01-09 00:02:00,35.0,9.0,30.16,SE,131,1.0,5.0,33,0.00,,,0.00,,2013-01-09 07:02:00,
2013-01-09 00:12:00,35.0,9.0,30.16,SE,131,1.0,5.0,33,0.00,,,0.00,,2013-01-09 07:12:00,
2013-01-09 00:22:00,35.0,9.0,30.16,SSE,148,1.0,8.0,33,0.00,,,0.00,,2013-01-09 07:22:00,
2013-01-09 00:32:00,36.0,9.0,30.17,WNW,285,2.0,11.0,32,0.00,,,0.00,,2013-01-09 07:32:00,
2013-01-09 00:42:00,36.0,9.0,30.17,WNW,285,2.0,11.0,32,0.00,,,0.00,,2013-01-09 07:42:00,
2013-01-09 00:52:00,35.0,9.0,30.17,ENE,67,1.0,5.0,33,0.00,,,0.00,,2013-01-09 07:52:00,
2013-01-09 01:02:00,35.0,9.0,30.18,ESE,108,1.0,7.0,33,0.00,,,0.00,,2013-01-09 08:02:00,
2013-01-09 01:12:00,35.0,9.0,30.18,ESE,108,1.0,7.0,33,0.00,,,0.00,,2013-01-09 08:12:00,
2013-01-09 01:22:00,34.0,9.0,30.19,West,269,2.0,4.0,35,0.00,,,0.00,,2013-01-09 08:22:00,
2013-01-09 01:32:00,36.0,10.0,30.19,West,273,4.0,13.0,33,0.00,,,0.00,,2013-01-09 08:32:00,
2013-01-09 01:42:00,36.0,10.0,30.19,West,273,4.0,13.0,33,0.00,,,0.00,,2013-01-09 08:42:00,
2013-01-09 01:52:00,35.0,9.0,30.19,SE,141,1.0,4.0,33,0.00,,,0.00,,2013-01-09 08:52:00,
2013-01-09 02:02:00,35.0,9.0,30.19,NE,46,1.0,9.0,33,0.00,,,0.00,,2013-01-09 09:02:00,
2013-01-09 02:12:00,35.0,9.0,30.19,NE,46,1.0,9.0,33,0.00,,,0.00,,2013-01-09 09:12:00,
2013-01-09 02:22:00,36.0,10.0,30.19,NE,53,1.0,8.0,33,0.00,,,0.00,,2013-01-09 09:22:00,
2013-01-09 02:32:00,35.0,9.0,30.19,East,80,2.0,6.0,33,0.00,,,0.00,,2013-01-09 09:32:00,
2013-01-09 02:42:00,35.0,9.0,30.19,East,80,2.0,6.0,33,0.00,,,0.00,,2013-01-09 09:42:00,
2013-01-09 02:53:00,36.0,10.0,30.19,ENE,75,2.0,8.0,33,0.00,,,0.00,,2013-01-09 09:53:00,
2013-01-09 03:02:00,36.0,10.0,30.19,WNW,293,1.0,11.0,33,0.00,,,0.00,,2013-01-09 10:02:00,
2013-01-09 03:12:00,36.0,10.0,30.19,WNW,293,1.0,11.0,33,0.00,,,0.00,,2013-01-09 10:12:00,
2013-01-09 03:22:00,36.0,9.0,30.19,NW,307,5.0,14.0,32,0.00,,,0.00,,2013-01-09 10:22:00,
2013-01-09 03:32:00,36.0,10.0,30.19,ENE,69,2.0,6.0,33,0.00,,,0.00,,2013-01-09 10:32:00,
2013-01-09 03:42:00,36.0,10.0,30.19,ENE,69,2.0,6.0,33,0.00,,,0.00,,2013-01-09 10:42:00,
2013-01-09 03:52:00,35.0,9.0,30.19,NNE,26,2.0,5.0,33,0.00,,,0.00,,2013-01-09 10:52:00,
2013-01-09 04:02:00,35.0,9.0,30.19,ESE,122,0.0,3.0,33,0.00,,,0.00,,2013-01-09 11:02:00,
2013-01-09 04:12:00,35.0,9.0,30.19,ESE,122,0.0,3.0,33,0.00,,,0.00,,2013-01-09 11:12:00,
2013-01-09 04:22:00,35.0,9.0,30.18,East,82,2.0,3.0,33,0.00,,,0.00,,2013-01-09 11:22:00,
2013-01-09 04:32:00,35.0,8.0,30.18,ENE,68,1.0,4.0,32,0.00,,,0.00,,2013-01-09 11:32:00,
2013-01-09 04:42:00,35.0,8.0,30.18,ENE,68,1.0,4.0,32,0.00,,,0.00,,2013-01-09 11:42:00,
2013-01-09 04:52:00,37.0,9.0,30.18,SE,126,1.0,4.0,31,0.00,,,0.00,,2013-01-09 11:52:00,
2013-01-09 05:03:00,35.0,9.0,30.18,WNW,286,3.0,4.0,33,0.00,,,0.00,,2013-01-09 12:03:00,
2013-01-09 05:12:00,35.0,9.0,30.18,WNW,286,3.0,4.0,33,0.00,,,0.00,,2013-01-09 12:12:00,
2013-01-09 05:23:00,34.0,9.0,30.18,SE,142,0.0,5.0,34,0.00,,,0.00,,2013-01-09 12:23:00,
2013-01-09 05:33:00,36.0,8.0,30.18,North,6,2.0,4.0,31,0.00,,,0.00,,2013-01-09 12:33:00,
2013-01-09 05:43:00,36.0,8.0,30.18,North,6,2.0,4.0,31,0.00,,,0.00,,2013-01-09 12:43:00,
2013-01-09 05:52:00,37.0,9.0,30.18,East,80,1.0,4.0,31,0.00,,,0.00,,2013-01-09 12:52:00,
2013-01-09 06:02:00,35.0,9.0,30.18,SE,129,0.0,3.0,33,0.00,,,0.00,,2013-01-09 13:02:00,
2013-01-09 06:12:00,35.0,9.0,30.18,SE,129,0.0,3.0,33,0.00,,,0.00,,2013-01-09 13:12:00,
2013-01-09 06:23:00,35.0,9.0,30.18,NNE,26,3.0,5.0,33,0.00,,,0.00,,2013-01-09 13:23:00,
2013-01-09 06:33:00,35.0,8.0,30.19,SE,129,2.0,5.0,32,0.00,,,0.00,,2013-01-09 13:33:00,
2013-01-09 06:43:00,35.0,8.0,30.19,SE,129,2.0,5.0,32,0.00,,,0.00,,2013-01-09 13:43:00,
2013-01-09 06:52:00,34.0,9.0,30.20,West,280,1.0,3.0,35,0.00,,,0.00,,2013-01-09 13:52:00,
2013-01-09 07:03:00,32.0,9.0,30.21,WNW,286,2.0,4.0,38,0.00,,,0.00,,2013-01-09 14:03:00,
2013-01-09 07:12:00,32.0,9.0,30.21,WNW,286,2.0,4.0,38,0.00,,,0.00,,2013-01-09 14:12:00,
2013-01-09 07:22:00,29.0,9.0,30.21,NW,307,3.0,4.0,43,0.00,,,0.00,,2013-01-09 14:22:00,
2013-01-09 07:33:00,29.0,9.0,30.22,WNW,295,4.0,6.0,43,0.00,,,0.00,,2013-01-09 14:33:00,
2013-01-09 07:43:00,29.0,9.0,30.22,WNW,295,4.0,6.0,43,0.00,,,0.00,,2013-01-09 14:43:00,
2013-01-09 07:53:00,28.0,9.0,30.22,NNW,327,2.0,6.0,44,0.00,,,0.00,,2013-01-09 14:53:00,
2013-01-09 08:03:00,26.0,9.0,30.22,WNW,290,4.0,6.0,48,0.00,,,0.00,,2013-01-09 15:03:00,
2013-01-09 08:12:00,26.0,9.0,30.22,WNW,290,4.0,6.0,48,0.00,,,0.00,,2013-01-09 15:12:00,
2013-01-09 08:23:00,29.0,9.0,30.23,WNW,302,2.0,5.0,42,0.00,,,0.00,,2013-01-09 15:23:00,
2013-01-09 08:33:00,28.0,9.0,30.23,NW,315,3.0,6.0,44,0.00,,,0.00,,2013-01-09 15:33:00,
2013-01-09 08:42:00,28.0,9.0,30.23,NW,315,3.0,6.0,44,0.00,,,0.00,,2013-01-09 15:42:00,
2013-01-09 08:53:00,30.0,9.0,30.24,WNW,294,4.0,8.0,41,0.00,,,0.00,,2013-01-09 15:53:00,
2013-01-09 09:03:00,30.0,9.0,30.24,NW,310,1.0,4.0,41,0.00,,,0.00,,2013-01-09 16:03:00,
2013-01-09 09:12:00,30.0,9.0,30.24,NW,310,1.0,4.0,41,0.00,,,0.00,,2013-01-09 16:12:00,
2013-01-09 09:23:00,37.0,11.0,30.24,SSE,150,1.0,3.0,33,0.00,,,0.00,,2013-01-09 16:23:00,
2013-01-09 09:33:00,37.0,10.0,30.24,WNW,302,0.0,2.0,32,0.00,,,0.00,,2013-01-09 16:33:00,
2013-01-09 09:43:00,37.0,10.0,30.24,WNW,302,0.0,2.0,32,0.00,,,0.00,,2013-01-09 16:43:00,
2013-01-09 09:52:00,36.0,11.0,30.24,WNW,291,0.0,2.0,35,0.00,,,0.00,,2013-01-09 16:52:00,
2013-01-09 10:02:00,40.0,10.0,30.24,SE,145,2.0,6.0,29,0.00,,,0.00,,2013-01-09 17:02:00,
2013-01-09 10:12:00,40.0,10.0,30.24,SE,145,2.0,6.0,29,0.00,,,0.00,,2013-01-09 17:12:00,
2013-01-09 10:23:00,43.0,10.0,30.24,ESE,122,4.0,7.0,25,0.00,,,0.00,,2013-01-09 17:23:00,
2013-01-09 10:32:00,44.0,10.0,30.25,SE,126,4.0,11.0,24,0.00,,,0.00,,2013-01-09 17:32:00,
2013-01-09 10:43:00,44.0,10.0,30.25,SE,126,4.0,11.0,24,0.00,,,0.00,,2013-01-09 17:43:00,
2013-01-09 10:53:00,44.0,10.0,30.25,SE,126,4.0,11.0,24,0.00,,,0.00,,2013-01-09 17:53:00,
2013-01-09 11:03:00,46.0,9.0,30.23,SSE,155,3.0,12.0,22,0.00,,,0.00,,2013-01-09 18:03:00,
2013-01-09 11:12:00,46.0,9.0,30.23,SSE,155,3.0,12.0,22,0.00,,,0.00,,2013-01-09 18:12:00,
2013-01-09 11:24:00,47.0,8.0,30.22,SE,129,5.0,9.0,20,0.00,,,0.00,,2013-01-09 18:24:00,
2013-01-09 11:33:00,47.0,8.0,30.20,SE,134,3.0,12.0,20,0.00,,,0.00,,2013-01-09 18:33:00,
2013-01-09 11:43:00,47.0,8.0,30.20,SE,134,3.0,12.0,20,0.00,,,0.00,,2013-01-09 18:43:00,
2013-01-09 11:53:00,48.0,8.0,30.19,East,99,5.0,10.0,19,0.00,,,0.00,,2013-01-09 18:53:00,
2013-01-09 12:03:00,49.0,7.0,30.18,SE,125,3.0,11.0,18,0.00,,,0.00,,2013-01-09 19:03:00,
2013-01-09 12:13:00,49.0,7.0,30.18,SE,125,3.0,11.0,18,0.00,,,0.00,,2013-01-09 19:13:00,
2013-01-09 12:22:00,50.0,8.0,30.17,ESE,103,2.0,8.0,18,0.00,,,0.00,,2013-01-09 19:22:00,
2013-01-09 12:33:00,51.0,8.0,30.16,East,99,3.0,10.0,17,0.00,,,0.00,,2013-01-09 19:33:00,
2013-01-09 12:43:00,51.0,8.0,30.16,East,99,3.0,10.0,17,0.00,,,0.00,,2013-01-09 19:43:00,
2013-01-09 12:52:00,50.0,8.0,30.14,SE,143,4.0,10.0,18,0.00,,,0.00,,2013-01-09 19:52:00,
2013-01-09 13:02:00,50.0,12.0,30.13,SSE,152,4.0,11.0,21,0.00,,,0.00,,2013-01-09 20:02:00,
2013-01-09 13:12:00,50.0,12.0,30.13,SSE,152,4.0,11.0,21,0.00,,,0.00,,2013-01-09 20:12:00,
2013-01-09 13:23:00,51.0,12.0,30.12,SSE,149,4.0,9.0,21,0.00,,,0.00,,2013-01-09 20:23:00,
2013-01-09 13:33:00,49.0,10.0,30.11,SSE,155,6.0,13.0,20,0.00,,,0.00,,2013-01-09 20:33:00,
2013-01-09 13:42:00,49.0,10.0,30.11,SSE,155,6.0,13.0,20,0.00,,,0.00,,2013-01-09 20:42:00,
2013-01-09 13:52:00,49.0,9.0,30.11,NNE,15,4.0,14.0,19,0.00,,,0.00,,2013-01-09 20:52:00,
2013-01-09 14:03:00,50.0,8.0,30.10,SSE,159,6.0,14.0,18,0.00,,,0.00,,2013-01-09 21:03:00,
2013-01-09 14:13:00,50.0,8.0,30.10,SSE,159,6.0,14.0,18,0.00,,,0.00,,2013-01-09 21:13:00,
2013-01-09 14:22:00,51.0,9.0,30.09,SSE,168,4.0,12.0,18,0.00,,,0.00,,2013-01-09 21:22:00,
2013-01-09 14:33:00,50.0,8.0,30.09,SSE,150,5.0,15.0,18,0.00,,,0.00,,2013-01-09 21:33:00,
2013-01-09 14:43:00,50.0,8.0,30.09,SSE,150,5.0,15.0,18,0.00,,,0.00,,2013-01-09 21:43:00,
2013-01-09 14:52:00,50.0,8.0,30.08,SE,145,4.0,12.0,18,0.00,,,0.00,,2013-01-09 21:52:00,
2013-01-09 15:03:00,51.0,9.0,30.07,ESE,114,5.0,10.0,18,0.00,,,0.00,,2013-01-09 22:03:00,
2013-01-09 15:12:00,51.0,9.0,30.07,ESE,114,5.0,10.0,18,0.00,,,0.00,,2013-01-09 22:12:00,
2013-01-09 15:23:00,50.0,11.0,30.08,SSE,150,4.0,10.0,20,0.00,,,0.00,,2013-01-09 22:23:00,
2013-01-09 15:33:00,50.0,11.0,30.07,East,96,3.0,8.0,20,0.00,,,0.00,,2013-01-09 22:33:00,
2013-01-09 15:43:00,50.0,11.0,30.07,East,96,3.0,8.0,20,0.00,,,0.00,,2013-01-09 22:43:00,
2013-01-09 15:52:00,50.0,9.0,30.08,SSE,148,1.0,6.0,19,0.00,,,0.00,,2013-01-09 22:52:00,
2013-01-09 16:02:00,49.0,11.0,30.07,SE,132,1.0,5.0,21,0.00,,,0.00,,2013-01-09 23:02:00,
2013-01-09 16:13:00,49.0,11.0,30.07,SE,132,1.0,5.0,21,0.00,,,0.00,,2013-01-09 23:13:00,
2013-01-09 16:22:00,48.0,10.0,30.06,SE,125,2.0,5.0,21,0.00,,,0.00,,2013-01-09 23:22:00,
2013-01-09 16:33:00,46.0,10.0,30.05,ESE,122,4.0,9.0,23,0.00,,,0.00,,2013-01-09 23:33:00,
2013-01-09 16:43:00,46.0,10.0,30.05,ESE,122,4.0,9.0,23,0.00,,,0.00,,2013-01-09 23:43:00,
2013-01-09 16:52:00,43.0,10.0,30.04,NW,315,0.0,4.0,26,0.00,,,0.00,,2013-01-09 23:52:00,
2013-01-09 17:03:00,38.0,12.0,30.03,NW,305,3.0,7.0,34,0.00,,,0.00,,2013-01-10 00:03:00,
2013-01-09 17:12:00,38.0,12.0,30.03,NW,305,3.0,7.0,34,0.00,,,0.00,,2013-01-10 00:12:00,
2013-01-09 17:22:00,38.0,11.0,30.03,WNW,291,4.0,7.0,33,0.00,,,0.00,,2013-01-10 00:22:00,
2013-01-09 17:32:00,35.0,11.0,30.03,NW,319,3.0,6.0,37,0.00,,,0.00,,2013-01-10 00:32:00,
2013-01-09 17:42:00,35.0,11.0,30.03,NW,319,3.0,6.0,37,0.00,,,0.00,,2013-01-10 00:42:00,
2013-01-09 17:52:00,35.0,11.0,30.04,NW,312,3.0,6.0,37,0.00,,,0.00,,2013-01-10 00:52:00,
2013-01-09 18:02:00,34.0,11.0,30.03,NW,322,4.0,8.0,38,0.00,,,0.00,,2013-01-10 01:02:00,
2013-01-09 18:12:00,34.0,11.0,30.03,NW,322,4.0,8.0,38,0.00,,,0.00,,2013-01-10 01:12:00,
2013-01-09 18:22:00,34.0,10.0,30.03,NNW,336,2.0,8.0,36,0.00,,,0.00,,2013-01-10 01:22:00,
2013-01-09 18:33:00,34.0,11.0,30.03,WNW,302,3.0,8.0,38,0.00,,,0.00,,2013-01-10 01:33:00,
2013-01-09 18:42:00,34.0,11.0,30.03,WNW,302,3.0,8.0,38,0.00,,,0.00,,2013-01-10 01:42:00,
2013-01-09 18:52:00,34.0,10.0,30.02,WNW,293,3.0,7.0,36,0.00,,,0.00,,2013-01-10 01:52:00,
2013-01-09 19:03:00,34.0,9.0,30.02,WNW,285,4.0,6.0,34,0.00,,,0.00,,2013-01-10 02:03:00,
2013-01-09 19:12:00,34.0,9.0,30.02,WNW,285,4.0,6.0,34,0.00,,,0.00,,2013-01-10 02:12:00,
2013-01-09 19:22:00,33.0,8.0,30.01,WNW,293,3.0,7.0,34,0.00,,,0.00,,2013-01-10 02:22:00,
2013-01-09 19:32:00,36.0,7.0,30.00,NNW,334,1.0,3.0,29,0.00,,,0.00,,2013-01-10 02:32:00,
2013-01-09 19:42:00,36.0,7.0,30.00,NNW,334,1.0,3.0,29,0.00,,,0.00,,2013-01-10 02:42:00,
2013-01-09 19:52:00,36.0,7.0,30.00,NNW,334,1.0,3.0,29,0.00,,,0.00,,2013-01-10 02:52:00,
2013-01-09 20:03:00,35.0,5.0,29.99,NW,326,3.0,4.0,28,0.00,,,0.00,,2013-01-10 03:03:00,
2013-01-09 20:12:00,35.0,5.0,29.99,NW,326,3.0,4.0,28,0.00,,,0.00,,2013-01-10 03:12:00,
2013-01-09 20:22:00,34.0,7.0,29.98,WNW,300,4.0,6.0,31,0.00,,,0.00,,2013-01-10 03:22:00,
2013-01-09 20:33:00,32.0,8.0,29.97,NW,304,3.0,6.0,36,0.00,,,0.00,,2013-01-10 03:33:00,
2013-01-09 20:42:00,32.0,8.0,29.97,NW,304,3.0,6.0,36,0.00,,,0.00,,2013-01-10 03:42:00,
2013-01-09 20:52:00,31.0,7.0,29.97,NW,309,2.0,4.0,36,0.00,,,0.00,,2013-01-10 03:52:00,
2013-01-09 21:02:00,30.0,8.0,29.98,WNW,291,2.0,4.0,39,0.00,,,0.00,,2013-01-10 04:02:00,
2013-01-09 21:12:00,30.0,8.0,29.98,WNW,291,2.0,4.0,39,0.00,,,0.00,,2013-01-10 04:12:00,
2013-01-09 21:22:00,27.0,6.0,29.98,NNW,340,3.0,7.0,41,0.00,,,0.00,,2013-01-10 04:22:00,
2013-01-09 21:32:00,29.0,7.0,29.97,WNW,300,3.0,8.0,38,0.00,,,0.00,,2013-01-10 04:32:00,
2013-01-09 21:42:00,29.0,7.0,29.97,WNW,300,3.0,8.0,38,0.00,,,0.00,,2013-01-10 04:42:00,
2013-01-09 21:52:00,26.0,7.0,29.97,NW,311,4.0,7.0,44,0.00,,,0.00,,2013-01-10 04:52:00,
2013-01-09 22:03:00,25.0,7.0,29.97,WNW,302,1.0,5.0,46,0.00,,,0.00,,2013-01-10 05:03:00,
2013-01-09 22:12:00,25.0,7.0,29.97,WNW,302,1.0,5.0,46,0.00,,,0.00,,2013-01-10 05:12:00,
2013-01-09 22:22:00,26.0,8.0,29.97,WNW,297,3.0,6.0,45,0.00,,,0.00,,2013-01-10 05:22:00,
2013-01-09 22:33:00,28.0,6.0,29.96,NNW,331,4.0,6.0,39,0.00,,,0.00,,2013-01-10 05:33:00,
2013-01-09 22:42:00,28.0,6.0,29.96,NNW,331,4.0,6.0,39,0.00,,,0.00,,2013-01-10 05:42:00,
2013-01-09 22:52:00,32.0,4.0,29.96,WNW,302,3.0,5.0,30,0.00,,,0.00,,2013-01-10 05:52:00,
2013-01-09 23:02:00,33.0,3.0,29.95,WNW,302,4.0,7.0,28,0.00,,,0.00,,2013-01-10 06:02:00,
2013-01-09 23:12:00,33.0,3.0,29.95,WNW,302,4.0,7.0,28,0.00,,,0.00,,2013-01-10 06:12:00,
2013-01-09 23:22:00,31.0,3.0,29.94,NW,322,2.0,6.0,30,0.00,,,0.00,,2013-01-10 06:22:00,
2013-01-09 23:32:00,31.0,5.0,29.93,NW,320,6.0,9.0,32,0.00,,,0.00,,2013-01-10 06:32:00,
2013-01-09 23:42:00,31.0,5.0,29.93,NW,320,6.0,9.0,32,0.00,,,0.00,,2013-01-10 06:42:00,
2013-01-09 23:52:00,31.0,4.0,29.93,NW,317,3.0,10.0,31,0.00,,,0.00,,2013-01-10 06:52:00,